Terminal Aerodrome Forecast
Issued by NWS Des Moines, IA

Home | Current Version | Previous Version | Text Only | Print | Product List | Glossary On
Versions: 1 2 3 4 5 6 7 8 9 10 11 12 13 14 15 16 17 18 19 20 21 22 23 24 25 26 27 28 29 30 31 32 33 34 35 36 37 38 39 40 41 42 43
000
FTUS43 KDMX 202328
TAFALO
TAF
KALO 202328Z 2100/2124 30012G19KT P6SM OVC080
     FM210200 27011KT P6SM SCT035
     FM211300 29012G20KT P6SM SCT040
     FM211500 30024G37KT P6SM BKN045=

USA.gov is the U.S. government's official web portal to all federal, state and local government web resources and services.